Time;durP1;ratioP1;P1;durP2;ratioP2;P2;SDS_P1;SDS_P2;PMS_P1;PMS_P2;Temp;Humidity;BMP_temperature;BMP_pressure;BME280_temperature;BME280_humidity;BME280_pressure;Samples;Min_cycle;Max_cycle;Signal;HPM_P1;HPM_P2
2022/04/30 00:02:09;;;;;;;19.80;10.02;;;;;;;5.78;76.63;102801.97;5072549;28;20364;-59
2022/04/30 00:04:39;;;;;;;17.85;9.43;;;;;;;5.72;76.78;102803.69;5072628;28;20085;-58
2022/04/30 00:07:05;;;;;;;19.17;9.98;;;;;;;5.67;76.94;102806.28;5072763;28;20025;-59
2022/04/30 00:09:31;;;;;;;20.65;10.15;;;;;;;5.58;77.84;102808.47;5072528;28;20032;-59
2022/04/30 00:11:57;;;;;;;19.17;9.73;;;;;;;5.56;78.05;102801.53;5072536;28;20017;-59
2022/04/30 00:14:23;;;;;;;20.20;9.43;;;;;;;5.55;77.83;102810.81;5074234;28;20027;-59
2022/04/30 00:16:48;;;;;;;19.95;10.48;;;;;;;5.50;78.04;102806.00;5076292;28;20123;-58
2022/04/30 00:19:15;;;;;;;19.33;9.80;;;;;;;5.46;78.15;102805.63;5076234;28;20124;-59
2022/04/30 00:21:40;;;;;;;19.85;9.70;;;;;;;5.49;77.93;102806.22;5076811;28;20028;-59
2022/04/30 00:24:06;;;;;;;19.55;9.60;;;;;;;5.44;78.15;102798.66;5076222;28;20424;-58
2022/04/30 00:26:31;;;;;;;18.20;8.93;;;;;;;5.46;77.54;102802.00;5076154;28;20033;-59
2022/04/30 00:28:56;;;;;;;21.15;10.30;;;;;;;5.43;77.77;102800.56;5075979;28;20021;-59
2022/04/30 00:31:21;;;;;;;19.33;9.27;;;;;;;5.40;78.24;102803.75;5075961;28;20055;-58
2022/04/30 00:33:48;;;;;;;20.35;10.05;;;;;;;5.35;78.29;102797.25;5075944;28;20474;-59
2022/04/30 00:36:14;;;;;;;18.70;9.27;;;;;;;5.30;79.42;102800.66;5076095;28;20021;-59
2022/04/30 00:38:40;;;;;;;18.55;9.55;;;;;;;5.30;78.79;102800.66;5076132;28;20035;-59
2022/04/30 00:41:08;;;;;;;19.30;9.35;;;;;;;5.29;78.81;102797.09;5075866;28;20017;-59
2022/04/30 00:43:47;;;;;;;18.27;9.25;;;;;;;5.26;79.34;102800.25;5075952;28;20109;-59
2022/04/30 00:46:13;;;;;;;18.30;9.35;;;;;;;5.22;78.88;102792.69;5075806;28;20024;-58
2022/04/30 00:48:38;;;;;;;20.17;10.02;;;;;;;5.18;79.10;102785.97;5076006;28;20025;-58
2022/04/30 00:51:07;;;;;;;18.52;9.18;;;;;;;5.13;80.19;102783.91;5075809;28;20038;-58
2022/04/30 00:53:33;;;;;;;18.58;10.10;;;;;;;5.04;79.99;102780.56;5075591;28;20511;-58
2022/04/30 00:56:01;;;;;;;17.83;9.10;;;;;;;4.97;80.37;102777.88;5075501;28;20087;-58
2022/04/30 00:58:29;;;;;;;20.58;9.25;;;;;;;4.98;80.82;102787.78;5075357;28;20456;-58
2022/04/30 01:00:55;;;;;;;18.27;9.00;;;;;;;4.96;81.02;102778.09;5075693;28;20055;-59
2022/04/30 01:03:22;;;;;;;19.70;9.88;;;;;;;4.93;81.04;102781.28;5075587;28;20379;-59
2022/04/30 01:05:49;;;;;;;19.80;9.70;;;;;;;4.89;81.18;102782.78;5075497;28;20111;-58
2022/04/30 01:08:14;;;;;;;20.45;9.63;;;;;;;4.89;81.55;102782.78;5075519;28;20028;-59
2022/04/30 01:10:40;;;;;;;18.67;9.43;;;;;;;4.89;81.24;102772.66;5074136;28;20509;-59
2022/04/30 01:13:06;;;;;;;18.80;9.90;;;;;;;4.88;81.30;102779.19;5075365;28;20547;-57
2022/04/30 01:15:33;;;;;;;19.25;9.55;;;;;;;4.88;81.45;102781.09;5075187;28;20119;-58
2022/04/30 01:17:59;;;;;;;20.52;9.85;;;;;;;4.81;82.41;102775.66;5075089;28;20471;-58
2022/04/30 01:20:27;;;;;;;21.23;9.80;;;;;;;4.77;82.21;102774.44;5075116;28;20078;-59
2022/04/30 01:23:10;;;;;;;17.70;9.50;;;;;;;4.83;81.62;102776.28;5075121;28;20055;-58
2022/04/30 01:25:38;;;;;;;20.95;10.00;;;;;;;4.78;82.26;102767.84;5075078;28;20028;-58
2022/04/30 01:28:03;;;;;;;19.85;10.00;;;;;;;4.74;83.37;102766.63;5075180;28;20428;-59
2022/04/30 01:30:29;;;;;;;19.38;9.60;;;;;;;4.72;83.08;102771.50;5073887;28;20040;-59
2022/04/30 01:38:22;;;;;;;;;;;;;;;4.76;80.05;102770.81;5075430;28;20093;-59
2022/04/30 01:40:48;;;;;;;19.45;9.98;;;;;;;4.77;82.24;102766.19;5074646;28;19912;-59
2022/04/30 01:43:14;;;;;;;21.17;10.32;;;;;;;4.69;83.76;102767.28;5074814;28;20027;-58
2022/04/30 01:45:40;;;;;;;20.38;10.13;;;;;;;4.62;83.30;102763.75;5074786;28;20037;-59
2022/04/30 01:48:08;;;;;;;19.20;9.43;;;;;;;4.59;83.57;102766.91;5074614;28;20072;-59
2022/04/30 01:50:34;;;;;;;20.42;10.35;;;;;;;4.56;84.33;102764.59;5074770;28;20044;-58
2022/04/30 01:53:00;;;;;;;18.55;9.65;;;;;;;4.55;84.39;102762.91;5074773;28;20463;-59
2022/04/30 01:55:25;;;;;;;21.85;10.35;;;;;;;4.52;84.58;102767.81;5074848;28;20132;-59
2022/04/30 01:57:51;;;;;;;19.90;9.90;;;;;;;4.52;84.96;102761.47;5073141;28;20059;-59
2022/04/30 02:00:20;;;;;;;20.13;10.32;;;;;;;4.48;84.36;102758.31;5074529;28;20025;-58
2022/04/30 02:02:49;;;;;;;19.77;10.13;;;;;;;4.41;84.63;102760.25;5074345;28;20429;-59
2022/04/30 02:05:16;;;;;;;20.25;10.10;;;;;;;4.42;84.58;102759.19;5074247;28;20479;-57
2022/04/30 02:07:48;;;;;;;21.73;10.48;;;;;;;4.37;85.41;102751.63;5074178;28;20024;-58
2022/04/30 02:10:14;;;;;;;22.67;10.50;;;;;;;4.32;85.38;102747.84;5074394;28;20016;-58
2022/04/30 02:12:40;;;;;;;19.73;10.05;;;;;;;4.36;84.61;102752.69;5074206;28;20028;-58
2022/04/30 02:15:08;;;;;;;20.23;10.93;;;;;;;4.30;85.04;102741.75;5073993;28;20436;-59
2022/04/30 02:17:36;;;;;;;21.20;10.13;;;;;;;4.27;85.59;102750.38;5073931;28;20077;-58
2022/04/30 02:22:54;;;;;;;20.20;10.20;;;;;;;4.20;86.32;102742.22;5074487;28;20043;-58
2022/04/30 02:25:21;;;;;;;22.13;11.02;;;;;;;4.20;86.07;102732.09;5074060;28;20029;-58
2022/04/30 02:27:48;;;;;;;22.50;10.45;;;;;;;4.15;85.63;102739.28;5073718;28;20032;-58
2022/04/30 02:30:17;;;;;;;21.50;10.23;;;;;;;4.16;86.41;102741.78;5073708;28;20028;-58
2022/04/30 02:32:53;;;;;;;21.83;10.40;;;;;;;4.08;87.05;102739.28;5073890;28;20491;-58
2022/04/30 02:35:22;;;;;;;22.13;10.88;;;;;;;4.05;87.71;102742.47;5073884;28;20039;-58
2022/04/30 02:37:50;;;;;;;22.70;10.57;;;;;;;3.99;87.06;102737.84;5073411;28;20071;-58
2022/04/30 02:40:17;;;;;;;22.27;11.15;;;;;;;4.01;87.39;102735.72;5073567;28;20032;-58
2022/04/30 02:42:44;;;;;;;23.20;11.43;;;;;;;3.99;87.44;102740.56;5073442;28;20059;-58
2022/04/30 02:45:11;;;;;;;23.30;11.30;;;;;;;3.99;87.56;102738.69;5073588;28;20048;-58
2022/04/30 02:47:38;;;;;;;22.15;11.32;;;;;;;3.98;87.50;102730.69;5073477;28;20027;-58
2022/04/30 02:50:08;;;;;;;24.20;11.80;;;;;;;3.97;88.03;102723.53;5073250;28;20051;-58
2022/04/30 02:52:34;;;;;;;20.63;10.98;;;;;;;3.96;87.54;102732.81;5073304;28;20377;-58
2022/04/30 02:54:59;;;;;;;21.75;11.48;;;;;;;3.94;87.87;102727.53;5073749;28;20051;-58
2022/04/30 02:57:24;;;;;;;22.92;11.43;;;;;;;3.94;88.00;102724.78;5072964;28;20028;-58
2022/04/30 02:59:55;;;;;;;22.13;11.55;;;;;;;3.96;86.99;102727.34;5073173;28;20024;-58
2022/04/30 03:02:23;;;;;;;22.48;11.88;;;;;;;3.94;87.52;102732.19;5073600;28;20052;-58
2022/04/30 03:04:53;;;;;;;22.60;11.68;;;;;;;3.89;87.88;102727.34;5073302;28;20036;-59
2022/04/30 03:07:19;;;;;;;23.95;11.90;;;;;;;3.88;88.18;102723.75;5073196;28;20029;-59
2022/04/30 03:09:49;;;;;;;23.17;11.57;;;;;;;3.89;88.03;102719.13;5073170;28;20043;-58
2022/04/30 03:12:15;;;;;;;24.30;12.30;;;;;;;3.90;87.94;102720.81;5073059;28;20032;-59
2022/04/30 03:14:42;;;;;;;22.77;11.73;;;;;;;3.88;87.83;102718.28;5073458;28;20038;-59
2022/04/30 03:22:35;;;;;;;22.77;12.38;;;;;;;3.91;87.50;102719.75;5073652;28;20055;-59
2022/04/30 03:25:00;;;;;;;23.83;11.73;;;;;;;3.89;87.82;102721.88;5073387;28;20383;-59
2022/04/30 03:27:25;;;;;;;22.77;12.50;;;;;;;3.88;88.04;102718.28;5073026;28;20032;-59
2022/04/30 03:29:51;;;;;;;26.05;12.02;;;;;;;3.88;88.02;102715.53;5072661;28;20024;-59
2022/04/30 03:32:17;;;;;;;23.73;13.13;;;;;;;3.83;88.50;102714.50;5072890;28;20483;-59
2022/04/30 03:34:42;;;;;;;23.88;12.57;;;;;;;3.81;87.92;102717.47;5072831;28;20041;-59
2022/04/30 03:37:08;;;;;;;27.13;13.55;;;;;;;3.79;88.66;102708.59;5072776;28;20025;-59
2022/04/30 03:39:33;;;;;;;24.92;12.13;;;;;;;3.74;88.47;102712.00;5072725;28;20036;-59
2022/04/30 03:41:58;;;;;;;24.65;12.25;;;;;;;3.72;88.51;102705.06;5072915;28;20028;-59
2022/04/30 03:44:23;;;;;;;22.80;13.13;;;;;;;3.68;88.44;102701.91;5072997;28;20040;-59
2022/04/30 03:46:49;;;;;;;24.13;13.00;;;;;;;3.66;88.66;102701.28;5073005;28;20556;-59
2022/04/30 03:49:16;;;;;;;23.67;13.05;;;;;;;3.67;88.89;102699.41;5074315;28;20036;-59
2022/04/30 03:51:41;;;;;;;24.42;12.93;;;;;;;3.68;88.74;102710.13;5076893;28;20162;-59
2022/04/30 03:54:06;;;;;;;24.05;12.93;;;;;;;3.65;88.79;102706.97;5076660;28;20127;-59
2022/04/30 03:56:32;;;;;;;24.73;12.73;;;;;;;3.62;89.14;102705.50;5077115;28;20137;-59
2022/04/30 03:58:58;;;;;;;23.77;13.70;;;;;;;3.61;88.88;102702.97;5076695;28;20383;-59
2022/04/30 04:01:24;;;;;;;29.08;17.48;;;;;;;3.60;90.09;102704.88;5076621;28;20185;-59
2022/04/30 04:03:50;;;;;;;24.05;12.38;;;;;;;3.58;89.88;102710.56;5076527;28;20382;-58
2022/04/30 04:06:16;;;;;;;25.40;12.68;;;;;;;3.54;89.31;102705.75;5076426;28;20111;-59
2022/04/30 04:08:42;;;;;;;24.88;13.18;;;;;;;3.53;89.75;102704.06;5076624;28;20025;-59
2022/04/30 04:11:10;;;;;;;24.50;12.98;;;;;;;3.53;90.16;102704.88;5076156;28;20108;-59
2022/04/30 04:19:30;;;;;;;24.20;13.50;;;;;;;3.47;90.14;102711.22;5053971;28;20412;-59
2022/04/30 04:21:56;;;;;;;24.65;14.40;;;;;;;3.52;89.56;102713.31;5053977;28;20037;-59
2022/04/30 04:27:05;;;;;;;26.65;13.35;;;;;;;3.50;91.02;102710.78;5076061;28;20075;-58
2022/04/30 04:29:30;;;;;;;26.88;13.90;;;;;;;3.51;90.97;102701.50;5075849;28;20060;-59
2022/04/30 04:31:55;;;;;;;25.45;13.80;;;;;;;3.48;92.22;102710.16;5075701;28;20043;-59
2022/04/30 04:34:21;;;;;;;24.30;13.77;;;;;;;3.50;91.69;102708.03;5075762;28;20024;-59
2022/04/30 04:36:46;;;;;;;24.85;14.30;;;;;;;3.55;90.71;102701.91;5075651;28;20028;-59
2022/04/30 04:39:14;;;;;;;25.30;14.18;;;;;;;3.58;91.29;102710.56;5075840;28;20479;-59
2022/04/30 04:41:44;;;;;;;27.80;15.23;;;;;;;3.58;91.78;102712.44;5075763;28;20448;-59
2022/04/30 04:44:10;;;;;;;27.92;17.58;;;;;;;3.57;92.01;102714.38;5075509;28;20040;-59
2022/04/30 04:46:39;;;;;;;30.30;19.15;;;;;;;3.57;92.82;102725.31;5075588;28;20033;-59
2022/04/30 04:49:06;;;;;;;30.05;20.10;;;;;;;3.58;92.76;102721.53;5075372;28;20086;-59
2022/04/30 04:51:33;;;;;;;32.85;21.05;;;;;;;3.63;92.06;102720.88;5075488;28;20526;-59
2022/04/30 04:53:58;;;;;;;27.83;18.35;;;;;;;3.68;92.02;102726.53;5075086;28;20045;-59
2022/04/30 04:56:23;;;;;;;28.83;17.95;;;;;;;3.73;91.40;102726.72;5075435;28;20055;-59
2022/04/30 04:58:48;;;;;;;30.20;18.27;;;;;;;3.78;92.00;102737.03;5075061;28;20021;-59
2022/04/30 05:01:14;;;;;;;28.55;16.85;;;;;;;3.79;91.92;102727.78;5074949;28;20385;-59
2022/04/30 05:03:40;;;;;;;85.18;60.35;;;;;;;3.85;91.90;102735.16;5075115;28;20029;-59
2022/04/30 05:06:05;;;;;;;110.47;82.32;;;;;;;3.90;92.21;102734.50;5075262;28;20082;-59
2022/04/30 05:08:30;;;;;;;116.80;87.45;;;;;;;3.94;92.55;102749.44;5074794;28;20098;-59
2022/04/30 05:10:56;;;;;;;101.95;79.80;;;;;;;3.96;92.97;102744.59;5074839;28;20029;-59
2022/04/30 05:13:21;;;;;;;58.25;45.33;;;;;;;4.02;91.83;102749.19;5075049;28;20466;-59
2022/04/30 05:15:46;;;;;;;38.70;27.25;;;;;;;4.12;91.57;102750.66;5074729;28;20107;-59
2022/04/30 05:18:11;;;;;;;33.45;22.60;;;;;;;4.22;91.85;102746.41;5074737;28;20505;-60
2022/04/30 05:20:38;;;;;;;31.27;21.15;;;;;;;4.25;91.91;102756.09;5074821;28;20036;-59
2022/04/30 05:23:03;;;;;;;28.85;17.48;;;;;;;4.30;91.59;102750.78;5074972;28;20097;-59
2022/04/30 05:25:29;;;;;;;26.42;15.07;;;;;;;4.37;90.90;102750.78;5074868;28;20476;-59
2022/04/30 05:27:54;;;;;;;24.67;14.50;;;;;;;4.42;90.98;102756.47;5074792;28;20032;-59
2022/04/30 05:30:19;;;;;;;25.08;13.88;;;;;;;4.44;91.01;102748.00;5074738;28;20028;-58
2022/04/30 05:32:45;;;;;;;26.33;14.30;;;;;;;4.50;90.39;102747.97;5074980;28;20024;-59
2022/04/30 05:35:10;;;;;;;26.15;14.68;;;;;;;4.55;90.77;102749.22;5074624;28;20028;-59
2022/04/30 05:37:36;;;;;;;26.00;15.05;;;;;;;4.59;91.02;102742.25;5074524;28;20153;-59
2022/04/30 05:40:02;;;;;;;25.58;14.85;;;;;;;4.63;90.38;102752.56;5074649;28;20032;-59
2022/04/30 05:42:28;;;;;;;30.63;19.58;;;;;;;4.64;90.93;102754.25;5074523;28;20060;-58
2022/04/30 05:44:53;;;;;;;28.73;19.33;;;;;;;4.72;90.55;102752.28;5074470;28;20102;-59
2022/04/30 05:47:19;;;;;;;29.05;18.00;;;;;;;4.82;89.88;102752.66;5074297;28;20039;-59
2022/04/30 05:49:44;;;;;;;26.58;16.88;;;;;;;4.88;89.29;102750.94;5074531;28;20471;-59
2022/04/30 05:52:11;;;;;;;28.83;15.82;;;;;;;4.94;89.89;102750.03;5074212;28;20424;-58
2022/04/30 05:54:37;;;;;;;27.13;16.08;;;;;;;4.96;89.75;102756.97;5074281;28;20540;-59
2022/04/30 05:57:02;;;;;;;26.15;15.70;;;;;;;5.04;89.07;102750.41;5074544;28;20025;-59
2022/04/30 05:59:28;;;;;;;27.55;14.63;;;;;;;5.11;89.69;102753.09;5074105;28;20136;-59
2022/04/30 06:01:53;;;;;;;26.05;15.15;;;;;;;5.20;88.84;102748.16;5073859;28;20029;-58
2022/04/30 06:04:18;;;;;;;25.40;14.63;;;;;;;5.29;88.48;102746.84;5073892;28;20031;-58
2022/04/30 06:06:44;;;;;;;25.92;15.02;;;;;;;5.35;87.84;102745.94;5073913;28;20030;-58
2022/04/30 06:09:09;;;;;;;28.40;15.88;;;;;;;5.39;88.29;102749.91;5073547;28;20032;-58
2022/04/30 06:11:34;;;;;;;25.40;15.35;;;;;;;5.51;87.46;102749.19;5073056;28;20021;-58
2022/04/30 06:14:00;;;;;;;26.70;15.10;;;;;;;5.59;87.85;102746.16;5073746;28;20036;-58
2022/04/30 06:16:25;;;;;;;26.48;15.05;;;;;;;5.69;86.74;102751.97;5073743;28;20021;-58
2022/04/30 06:18:50;;;;;;;26.60;15.43;;;;;;;5.74;86.97;102743.91;5073365;28;20101;-58
2022/04/30 06:21:16;;;;;;;24.90;14.88;;;;;;;5.84;86.53;102748.03;5073760;28;20033;-58
2022/04/30 06:23:41;;;;;;;26.13;14.70;;;;;;;5.90;86.31;102741.63;5073479;28;20057;-58
2022/04/30 06:26:06;;;;;;;26.40;14.65;;;;;;;5.99;85.60;102751.28;5074016;28;20075;-58
2022/04/30 06:28:31;;;;;;;24.55;14.45;;;;;;;6.11;85.42;102750.53;5073555;28;20035;-58
2022/04/30 06:30:59;;;;;;;26.70;14.35;;;;;;;6.20;84.69;102754.63;5073266;28;20025;-58
2022/04/30 06:33:24;;;;;;;24.35;14.35;;;;;;;6.27;84.74;102758.13;5073249;28;20112;-58
2022/04/30 06:35:50;;;;;;;25.60;14.15;;;;;;;6.32;84.55;102755.56;5073196;28;20151;-58
2022/04/30 06:38:16;;;;;;;25.30;14.57;;;;;;;6.44;84.38;102757.50;5073056;28;20036;-58
2022/04/30 06:40:41;;;;;;;25.83;14.15;;;;;;;6.55;84.09;102757.59;5073030;28;20085;-58
2022/04/30 06:43:06;;;;;;;26.70;15.50;;;;;;;6.60;83.96;102748.66;5073079;28;20345;-58
2022/04/30 06:45:32;;;;;;;24.20;15.77;;;;;;;6.65;83.72;102753.44;5072975;28;20025;-57
2022/04/30 06:47:58;;;;;;;25.88;14.60;;;;;;;6.71;84.07;102752.50;5073052;28;20032;-58
2022/04/30 06:50:23;;;;;;;24.52;14.98;;;;;;;6.75;83.03;102750.13;5073061;28;20031;-58
2022/04/30 06:58:17;;;;;;;25.35;14.75;;;;;;;6.89;82.55;102757.13;5073153;28;20394;-58
2022/04/30 07:03:27;;;;;;;25.60;15.27;;;;;;;7.05;81.95;102754.78;5072981;28;20049;-58
2022/04/30 07:05:56;;;;;;;24.83;15.48;;;;;;;7.09;80.81;102754.06;5072877;28;20079;-59
2022/04/30 07:08:22;;;;;;;26.13;15.60;;;;;;;7.13;81.50;102752.50;5073212;28;20035;-58
2022/04/30 07:10:47;;;;;;;25.05;14.35;;;;;;;7.13;81.48;102758.00;5072937;28;20020;-58
2022/04/30 07:13:12;;;;;;;24.98;13.60;;;;;;;7.22;81.52;102754.94;5072531;28;20094;-59
2022/04/30 07:15:37;;;;;;;25.17;14.25;;;;;;;7.32;81.17;102755.19;5072906;28;20038;-58
2022/04/30 07:18:03;;;;;;;26.38;14.35;;;;;;;7.37;80.35;102758.06;5072507;28;20348;-58
2022/04/30 07:20:28;;;;;;;24.90;13.90;;;;;;;7.44;80.32;102758.78;5072701;28;20028;-59
2022/04/30 07:22:54;;;;;;;26.02;14.45;;;;;;;7.56;79.84;102755.22;5072429;28;20027;-58
2022/04/30 07:25:19;;;;;;;23.17;14.35;;;;;;;7.59;79.18;102755.56;5072556;28;20463;-59
2022/04/30 07:27:44;;;;;;;24.77;13.57;;;;;;;7.65;78.76;102753.78;5072624;28;20036;-58
2022/04/30 07:30:10;;;;;;;23.98;13.80;;;;;;;7.77;78.48;102756.50;5072720;28;20024;-58
2022/04/30 07:32:39;;;;;;;24.27;13.77;;;;;;;7.82;77.99;102751.13;5072219;28;20036;-59
2022/04/30 07:35:04;;;;;;;24.48;14.60;;;;;;;7.91;77.26;102752.44;5072370;28;20103;-59
2022/04/30 07:37:30;;;;;;;26.02;14.00;;;;;;;7.95;76.85;102752.81;5072660;28;20439;-59
2022/04/30 07:39:55;;;;;;;28.55;13.93;;;;;;;8.02;76.89;102744.41;5072157;28;20088;-58
2022/04/30 07:42:20;;;;;;;25.45;14.18;;;;;;;8.19;75.80;102750.84;5072565;28;20029;-59
2022/04/30 07:44:45;;;;;;;24.50;12.75;;;;;;;8.25;76.00;102754.56;5072082;28;20021;-58
2022/04/30 07:47:11;;;;;;;32.03;14.20;;;;;;;8.37;74.48;102752.59;5072338;28;20032;-58
2022/04/30 07:49:36;;;;;;;23.77;11.98;;;;;;;8.45;73.19;102745.84;5072261;28;20467;-59
2022/04/30 07:52:02;;;;;;;22.48;12.07;;;;;;;8.53;73.03;102753.75;5072377;28;20036;-59
2022/04/30 07:54:27;;;;;;;22.42;12.38;;;;;;;8.65;72.80;102741.84;5072002;28;20044;-59
2022/04/30 07:56:56;;;;;;;22.63;13.00;;;;;;;8.81;71.67;102752.09;5072291;28;20041;-59
2022/04/30 07:59:23;;;;;;;21.65;12.43;;;;;;;9.00;70.82;102754.63;5071944;28;20135;-58
2022/04/30 08:01:49;;;;;;;22.63;12.15;;;;;;;9.12;69.94;102755.41;5072113;28;20103;-58
2022/04/30 08:04:14;;;;;;;21.55;11.80;;;;;;;9.23;69.65;102741.78;5072280;28;20048;-58
2022/04/30 08:06:39;;;;;;;21.17;11.88;;;;;;;9.30;69.65;102742.44;5072255;28;20025;-58
2022/04/30 08:09:05;;;;;;;21.02;11.50;;;;;;;9.46;69.48;102741.59;5072145;28;20028;-58
2022/04/30 08:11:30;;;;;;;21.52;12.07;;;;;;;9.62;69.55;102731.63;5071776;28;20028;-58
2022/04/30 08:13:55;;;;;;;21.40;11.98;;;;;;;9.79;68.52;102739.91;5071718;28;20052;-58
2022/04/30 08:16:21;;;;;;;20.73;11.68;;;;;;;9.76;67.14;102732.09;5071922;28;20028;-58
2022/04/30 08:18:46;;;;;;;22.13;12.05;;;;;;;9.64;66.97;102740.50;5071765;28;20021;-58
2022/04/30 08:21:11;;;;;;;23.10;12.20;;;;;;;9.64;67.85;102728.59;5072145;28;20032;-59
2022/04/30 08:23:37;;;;;;;22.50;11.40;;;;;;;9.66;67.76;102738.34;5071851;28;20029;-58
2022/04/30 08:26:03;;;;;;;20.58;11.50;;;;;;;9.65;66.46;102731.13;5071719;28;20020;-59
2022/04/30 08:28:28;;;;;;;21.48;11.95;;;;;;;9.58;66.95;102730.47;5071992;28;20032;-59
2022/04/30 08:30:54;;;;;;;22.15;11.57;;;;;;;9.62;67.14;102737.16;5071520;28;20047;-58
2022/04/30 08:33:19;;;;;;;20.63;11.32;;;;;;;9.78;66.90;102732.69;5071646;28;20044;-58
2022/04/30 08:35:44;;;;;;;20.33;11.02;;;;;;;9.86;65.71;102736.97;5074111;28;20068;-60
2022/04/30 08:38:10;;;;;;;22.45;11.23;;;;;;;9.70;65.87;102727.59;5075181;28;20031;-58
2022/04/30 08:40:35;;;;;;;21.17;11.02;;;;;;;9.71;65.56;102722.91;5075452;28;20041;-58
2022/04/30 08:43:08;;;;;;;20.33;10.60;;;;;;;9.92;65.80;102724.88;5075183;28;20025;-57
2022/04/30 08:45:37;;;;;;;20.83;11.60;;;;;;;10.10;64.64;102704.38;5075340;28;20044;-58
2022/04/30 08:48:07;;;;;;;20.17;10.52;;;;;;;10.28;63.10;102714.25;5075067;28;20402;-58
2022/04/30 08:50:32;;;;;;;19.85;11.20;;;;;;;10.52;62.85;102710.41;5075499;28;20029;-58
2022/04/30 08:52:57;;;;;;;19.83;10.55;;;;;;;10.61;62.41;102711.59;5075140;28;20036;-58
2022/04/30 08:55:23;;;;;;;19.10;10.82;;;;;;;10.73;61.71;102715.06;5075034;28;20056;-58
2022/04/30 08:57:48;;;;;;;21.38;10.50;;;;;;;10.61;63.01;102709.69;5074885;28;20491;-58
2022/04/30 09:00:14;;;;;;;20.63;11.35;;;;;;;10.38;64.59;102710.81;5075097;28;20048;-58
2022/04/30 09:02:52;;;;;;;21.90;11.27;;;;;;;10.07;65.47;102702.13;5075299;28;20025;-58
2022/04/30 09:05:17;;;;;;;21.08;10.02;;;;;;;9.97;65.35;102715.81;5074976;28;20419;-58
2022/04/30 09:07:55;;;;;;;20.35;10.60;;;;;;;9.90;66.18;102696.63;5075182;28;20112;-58
2022/04/30 09:10:22;;;;;;;21.80;11.13;;;;;;;9.82;65.97;102705.38;5074840;28;20052;-59
2022/04/30 09:12:48;;;;;;;21.60;11.00;;;;;;;9.85;66.59;102704.88;5075217;28;20021;-59
2022/04/30 09:15:15;;;;;;;21.13;10.30;;;;;;;10.03;65.81;102700.13;5075026;28;20494;-59
2022/04/30 09:17:41;;;;;;;20.80;10.40;;;;;;;10.23;64.70;102710.59;5074914;28;20029;-59
2022/04/30 09:20:07;;;;;;;19.70;10.95;;;;;;;10.24;64.78;102701.19;5074978;28;20029;-59
2022/04/30 09:22:34;;;;;;;19.83;10.60;;;;;;;10.42;63.12;102706.44;5074959;28;20032;-56
2022/04/30 09:25:02;;;;;;;20.77;10.77;;;;;;;10.49;63.20;102697.94;5074734;28;20107;-59
2022/04/30 09:27:28;;;;;;;20.58;11.07;;;;;;;10.54;62.32;102700.72;5074710;28;20143;-58
2022/04/30 09:29:53;;;;;;;20.55;11.13;;;;;;;10.53;62.32;102703.78;5074641;28;20067;-58
2022/04/30 09:32:21;;;;;;;20.13;10.98;;;;;;;10.56;61.77;102694.97;5074387;28;20035;-58
2022/04/30 09:37:42;;;;;;;21.73;10.75;;;;;;;11.00;59.79;102694.00;5074547;28;20111;-58
2022/04/30 09:40:13;;;;;;;21.77;10.68;;;;;;;11.16;59.11;102681.09;5074593;28;20081;-58
2022/04/30 09:42:38;;;;;;;21.08;10.93;;;;;;;11.28;58.96;102681.75;5074836;28;20071;-58
2022/04/30 09:45:05;;;;;;;19.27;9.93;;;;;;;11.53;58.56;102681.09;5074514;28;20028;-58
2022/04/30 09:47:33;;;;;;;19.75;9.95;;;;;;;11.66;56.82;102685.31;5073741;28;20095;-60
2022/04/30 09:55:53;;;;;;;19.93;9.90;;;;;;;11.63;55.81;102676.69;5071951;28;20048;-59
2022/04/30 09:58:22;;;;;;;17.98;9.20;;;;;;;11.79;54.77;102672.91;5071776;28;20032;-59
2022/04/30 10:00:48;;;;;;;18.40;9.82;;;;;;;11.62;54.85;102669.47;5072966;28;20044;-59
2022/04/30 10:03:13;;;;;;;19.42;9.50;;;;;;;11.59;55.16;102667.25;5073998;28;20028;-59
2022/04/30 10:05:40;;;;;;;21.40;9.60;;;;;;;11.70;54.87;102664.28;5074202;28;20079;-57
2022/04/30 10:08:06;;;;;;;21.05;9.55;;;;;;;11.46;54.97;102661.09;5073788;28;20498;-57
2022/04/30 10:10:46;;;;;;;19.10;9.88;;;;;;;11.51;55.05;102663.88;5073744;28;20033;-57
2022/04/30 10:13:40;;;;;;;21.98;9.85;;;;;;;11.69;55.72;102670.91;5073853;28;20028;-58
2022/04/30 10:16:12;;;;;;;20.63;10.00;;;;;;;11.70;53.61;102667.06;5074036;28;20025;-59
2022/04/30 10:18:42;;;;;;;20.08;9.82;;;;;;;11.79;53.34;102659.03;5073498;28;20468;-58
2022/04/30 10:21:18;;;;;;;21.15;10.18;;;;;;;11.94;54.07;102649.13;5073956;28;20037;-59
2022/04/30 10:23:44;;;;;;;18.90;9.63;;;;;;;12.12;52.84;102645.06;5073893;28;20060;-59
2022/04/30 10:26:09;;;;;;;18.80;9.55;;;;;;;12.19;52.66;102633.69;5073922;28;20056;-58
2022/04/30 10:28:34;;;;;;;19.27;9.35;;;;;;;12.21;51.83;102648.97;5073422;28;20067;-58
2022/04/30 10:31:01;;;;;;;18.88;9.13;;;;;;;12.17;51.31;102634.81;5073365;28;20036;-59
2022/04/30 10:33:27;;;;;;;17.95;9.20;;;;;;;12.32;50.16;102636.78;5073341;28;20025;-59
2022/04/30 10:36:03;;;;;;;20.17;9.40;;;;;;;12.34;51.37;102630.94;5073628;28;20502;-58
2022/04/30 10:38:28;;;;;;;18.98;9.38;;;;;;;12.30;50.65;102644.53;5073391;28;20025;-58
2022/04/30 10:40:58;;;;;;;17.88;8.57;;;;;;;12.18;50.22;102632.88;5073272;28;20036;-58
2022/04/30 10:43:37;;;;;;;19.77;9.10;;;;;;;12.20;49.12;102632.59;5073211;28;20029;-59
2022/04/30 10:46:05;;;;;;;17.15;8.25;;;;;;;12.23;49.45;102621.78;5072990;28;20418;-59
2022/04/30 10:48:33;;;;;;;18.52;9.10;;;;;;;12.31;49.28;102618.47;5073405;28;20029;-59
2022/04/30 10:51:07;;;;;;;18.20;8.90;;;;;;;12.36;49.93;102619.59;5073231;28;20348;-59
2022/04/30 10:53:33;;;;;;;18.73;8.80;;;;;;;12.34;47.73;102617.06;5073286;28;20085;-59
2022/04/30 10:56:04;;;;;;;16.27;8.00;;;;;;;12.29;47.79;102609.56;5072908;28;20132;-59
2022/04/30 10:58:32;;;;;;;16.20;8.43;;;;;;;12.32;47.98;102608.22;5072596;28;20119;-58
2022/04/30 11:01:09;;;;;;;16.13;7.65;;;;;;;12.54;44.96;102612.66;5072773;28;20026;-58
2022/04/30 11:03:34;;;;;;;13.45;7.32;;;;;;;12.86;43.80;102606.84;5073349;28;20040;-59
2022/04/30 11:05:59;;;;;;;13.48;7.40;;;;;;;13.27;42.79;102587.31;5072971;28;20170;-58
2022/04/30 11:08:26;;;;;;;15.55;7.97;;;;;;;13.45;42.21;102590.63;5072844;28;20035;-59
2022/04/30 11:10:53;;;;;;;15.13;7.40;;;;;;;13.56;42.18;102594.19;5073192;28;20020;-59
2022/04/30 11:13:19;;;;;;;15.88;7.90;;;;;;;13.58;41.61;102591.97;5072679;28;20028;-59
2022/04/30 11:15:45;;;;;;;16.98;7.80;;;;;;;13.33;42.52;102592.84;5072726;28;20063;-58
2022/04/30 11:18:10;;;;;;;17.88;8.00;;;;;;;13.18;43.60;102589.03;5072580;28;20052;-58
2022/04/30 11:20:35;;;;;;;16.77;8.30;;;;;;;13.35;45.06;102585.06;5072723;28;20459;-59
2022/04/30 11:23:01;;;;;;;19.73;9.70;;;;;;;13.38;45.55;102578.97;5072636;28;20536;-59
2022/04/30 11:25:37;;;;;;;20.08;8.88;;;;;;;13.15;45.34;102575.69;5072412;28;20492;-58
2022/04/30 11:28:10;;;;;;;20.63;9.32;;;;;;;13.25;46.15;102580.41;5072520;28;20023;-58
2022/04/30 11:30:37;;;;;;;17.17;9.10;;;;;;;13.56;45.37;102574.75;5072697;28;20032;-58
2022/04/30 11:33:03;;;;;;;20.02;8.82;;;;;;;13.81;44.80;102568.22;5072548;28;20028;-59
2022/04/30 11:35:28;;;;;;;17.42;8.25;;;;;;;13.86;42.76;102572.94;5072637;28;20245;-59
2022/04/30 11:37:54;;;;;;;17.23;8.80;;;;;;;13.80;43.29;102569.34;5072747;28;20546;-59
2022/04/30 11:40:22;;;;;;;18.10;8.57;;;;;;;13.75;42.87;102557.41;5072649;28;20036;-58
2022/04/30 11:42:57;;;;;;;19.25;9.30;;;;;;;13.54;43.37;102566.69;5072604;28;20490;-58
2022/04/30 11:45:30;;;;;;;17.35;8.80;;;;;;;13.60;43.73;102558.34;5072463;28;20037;-59
2022/04/30 11:47:59;;;;;;;18.15;8.55;;;;;;;13.50;43.62;102554.50;5072919;28;20028;-58
2022/04/30 11:50:26;;;;;;;18.45;8.90;;;;;;;13.67;44.57;102554.13;5072412;28;20033;-59
2022/04/30 11:52:52;;;;;;;20.77;8.85;;;;;;;13.71;43.32;102549.66;5072435;28;20028;-58
2022/04/30 11:55:20;;;;;;;16.92;8.68;;;;;;;13.62;42.61;102556.09;5072057;28;20048;-59